createdAt,value
2022-08-22T00:03:17.493Z,13.03
2022-08-22T00:06:01.932Z,10.35
2022-08-22T00:09:13.013Z,10.05
2022-08-22T00:12:37.997Z,11.03
2022-08-22T00:15:53.460Z,9.10
2022-08-22T00:19:11.095Z,12.50
2022-08-22T00:22:25.511Z,13.83
2022-08-22T00:25:46.920Z,12.82
2022-08-22T00:29:00.889Z,12.63
2022-08-22T00:32:28.200Z,10.80
2022-08-22T00:35:53.753Z,12.70
2022-08-22T00:39:04.144Z,12.75
2022-08-22T00:42:56.007Z,13.15
2022-08-22T00:46:28.955Z,12.33
2022-08-22T00:50:04.325Z,13.75
2022-08-22T00:53:57.199Z,13.38
2022-08-22T00:57:53.710Z,12.07
2022-08-22T01:01:04.248Z,14.38
2022-08-22T01:04:27.891Z,12.43
2022-08-22T01:08:24.695Z,14.40
2022-08-22T01:11:59.624Z,12.20
2022-08-22T01:15:20.314Z,15.55
2022-08-22T01:19:14.927Z,13.55
2022-08-22T01:22:49.037Z,13.83
2022-08-22T01:26:32.032Z,16.55
2022-08-22T01:29:58.518Z,16.40
2022-08-22T01:33:31.043Z,15.93
2022-08-22T01:37:04.086Z,13.03
2022-08-22T01:40:53.964Z,14.35
2022-08-22T01:44:23.540Z,14.35
2022-08-22T01:47:40.821Z,15.25
2022-08-22T01:51:13.063Z,15.85
2022-08-22T01:54:46.047Z,16.87
2022-08-22T01:58:12.631Z,15.00
2022-08-22T02:01:46.364Z,14.70
2022-08-22T02:04:57.400Z,17.90
2022-08-22T02:08:18.359Z,16.87
2022-08-22T02:11:46.203Z,15.58
2022-08-22T02:14:58.705Z,15.58
2022-08-22T02:18:25.668Z,14.95
2022-08-22T02:21:38.267Z,17.25
2022-08-22T02:25:23.993Z,15.78
2022-08-22T02:28:56.887Z,14.25
2022-08-22T02:32:15.265Z,12.68
2022-08-22T02:35:37.428Z,15.45
2022-08-22T02:39:11.254Z,14.85
2022-08-22T02:42:40.747Z,15.65
2022-08-22T02:45:55.538Z,15.15
2022-08-22T02:49:27.356Z,19.05
2022-08-22T02:52:58.932Z,17.50
2022-08-22T02:56:33.775Z,16.95
2022-08-22T03:00:31.484Z,14.83
2022-08-22T03:03:32.822Z,17.00
2022-08-22T03:06:54.587Z,16.17
2022-08-22T03:10:07.270Z,18.30
2022-08-22T03:13:29.027Z,16.65
2022-08-22T03:17:05.528Z,16.62
2022-08-22T03:20:16.738Z,15.55
2022-08-22T03:23:53.796Z,16.23
2022-08-22T03:27:32.355Z,15.90
2022-08-22T03:30:51.793Z,17.82
2022-08-22T03:33:58.500Z,17.23
2022-08-22T03:37:32.464Z,16.17
2022-08-22T03:41:08.824Z,16.17
2022-08-22T03:44:42.735Z,15.68
2022-08-22T03:48:29.686Z,15.03
2022-08-22T03:51:56.699Z,15.88
2022-08-22T03:55:36.485Z,14.63
2022-08-22T03:59:25.373Z,15.63
2022-08-22T04:03:05.488Z,14.93
2022-08-22T04:10:13.584Z,14.23
2022-08-22T04:13:55.753Z,14.05
2022-08-22T04:17:21.358Z,13.43
2022-08-22T04:21:06.260Z,13.08
2022-08-22T04:24:52.083Z,13.88
2022-08-22T04:28:29.778Z,17.32
2022-08-22T04:31:45.474Z,14.15
2022-08-22T04:34:55.540Z,13.60
2022-08-22T04:38:38.452Z,13.95
2022-08-22T04:42:31.783Z,12.58
2022-08-22T04:45:36.703Z,11.95
2022-08-22T04:49:04.989Z,12.90
2022-08-22T04:52:20.442Z,11.78
2022-08-22T04:56:07.081Z,12.95
2022-08-22T04:59:23.709Z,13.28
2022-08-22T05:02:35.952Z,10.03
2022-08-22T05:05:47.073Z,9.95
2022-08-22T05:08:54.019Z,12.60
2022-08-22T05:11:59.882Z,9.90
2022-08-22T05:15:09.797Z,10.65
2022-08-22T05:18:25.543Z,10.50
2022-08-22T05:21:32.262Z,13.00
2022-08-22T05:24:46.855Z,8.48
2022-08-22T05:28:01.984Z,10.58
2022-08-22T05:31:07.308Z,9.58
2022-08-22T05:34:18.516Z,9.48
2022-08-22T05:37:36.998Z,9.95
2022-08-22T05:40:44.005Z,8.60
2022-08-22T05:43:55.351Z,8.78
2022-08-22T05:47:16.681Z,9.15
2022-08-22T05:50:29.587Z,8.90
2022-08-22T05:53:44.975Z,8.15
2022-08-22T05:56:54.524Z,8.43
2022-08-22T06:00:00.840Z,8.63
2022-08-22T06:03:35.485Z,9.73
2022-08-22T06:06:51.920Z,8.15
2022-08-22T06:10:15.728Z,8.03
2022-08-22T06:13:36.099Z,7.70
2022-08-22T06:16:53.730Z,8.45
2022-08-22T06:20:04.792Z,8.33
2022-08-22T06:23:13.460Z,7.75
2022-08-22T06:26:20.463Z,9.00
2022-08-22T06:29:27.305Z,8.40
2022-08-22T06:32:59.166Z,6.50
2022-08-22T06:36:24.266Z,9.15
2022-08-22T06:39:42.992Z,8.90
2022-08-22T06:42:50.646Z,7.70
2022-08-22T06:45:56.381Z,7.78
2022-08-22T06:49:02.088Z,7.35
2022-08-22T06:52:14.403Z,7.72
2022-08-22T06:55:22.254Z,7.03
2022-08-22T06:58:38.298Z,6.53
2022-08-22T07:02:04.237Z,8.30
2022-08-22T07:05:09.222Z,7.72
2022-08-22T07:08:16.696Z,7.12
2022-08-22T07:11:32.343Z,6.40
2022-08-22T07:14:50.415Z,7.40
2022-08-22T07:18:05.252Z,6.85
2022-08-22T07:21:14.813Z,6.60
2022-08-22T07:24:20.329Z,6.22
2022-08-22T07:27:38.069Z,6.45
2022-08-22T07:31:12.784Z,5.85
2022-08-22T07:35:00.489Z,6.22
2022-08-22T07:38:30.872Z,6.75
2022-08-22T07:41:38.547Z,7.00
2022-08-22T07:44:53.748Z,6.83
2022-08-22T07:48:08.305Z,6.47
2022-08-22T07:51:25.924Z,5.53
2022-08-22T07:54:48.748Z,6.95
2022-08-22T07:57:56.427Z,6.67
2022-08-22T08:01:01.977Z,5.12
2022-08-22T08:04:14.524Z,8.53
2022-08-22T08:07:22.793Z,5.08
2022-08-22T08:10:33.083Z,6.97
2022-08-22T08:13:51.517Z,5.60
2022-08-22T08:17:13.897Z,6.22
2022-08-22T08:20:27.000Z,5.97
2022-08-22T08:23:32.233Z,6.22
2022-08-22T08:26:51.643Z,4.97
2022-08-22T08:30:13.370Z,5.78
2022-08-22T08:33:25.972Z,5.30
2022-08-22T08:36:51.310Z,4.95
2022-08-22T08:40:05.086Z,5.70
2022-08-22T08:43:36.362Z,6.25
2022-08-22T08:47:22.249Z,6.05
2022-08-22T08:51:12.756Z,6.00
2022-08-22T08:54:53.825Z,5.08
2022-08-22T08:58:24.457Z,6.92
2022-08-22T09:01:37.920Z,4.83
2022-08-22T09:04:49.208Z,5.70
2022-08-22T09:08:22.326Z,6.58
2022-08-22T09:11:37.473Z,5.22
2022-08-22T09:15:27.414Z,6.72
2022-08-22T09:18:40.392Z,5.15
2022-08-22T09:22:14.460Z,5.50
2022-08-22T09:25:44.897Z,4.78
2022-08-22T09:29:09.256Z,6.80
2022-08-22T09:32:02.816Z,6.30
2022-08-22T09:35:35.033Z,5.97
2022-08-22T09:38:58.818Z,6.12
2022-08-22T09:42:27.298Z,5.75
2022-08-22T09:45:53.546Z,6.17
2022-08-22T09:49:33.525Z,5.33
2022-08-22T09:52:46.295Z,5.83
2022-08-22T09:56:15.002Z,5.22
2022-08-22T09:59:26.370Z,5.50
2022-08-22T10:02:52.221Z,5.17
2022-08-22T10:06:16.894Z,5.12
2022-08-22T10:09:35.250Z,4.83
2022-08-22T10:12:46.022Z,5.22
2022-08-22T10:16:01.437Z,5.37
2022-08-22T10:19:14.626Z,4.97
2022-08-22T10:22:55.618Z,4.67
2022-08-22T10:26:08.656Z,4.45
2022-08-22T10:29:42.996Z,4.47
2022-08-22T10:33:05.767Z,4.28
2022-08-22T10:36:34.305Z,3.90
2022-08-22T10:39:53.915Z,3.40
2022-08-22T10:43:07.038Z,4.05
2022-08-22T10:46:37.191Z,3.17
2022-08-22T10:53:40.688Z,2.95
2022-08-22T10:57:21.986Z,3.22
2022-08-22T11:01:01.471Z,3.08
2022-08-22T11:04:34.816Z,4.35
2022-08-22T11:08:19.261Z,2.77
2022-08-22T11:11:48.876Z,3.35
2022-08-22T11:15:28.353Z,3.17
2022-08-22T11:19:02.714Z,3.12
2022-08-22T11:22:23.689Z,3.35
2022-08-22T11:26:01.237Z,4.47
2022-08-22T11:29:35.789Z,3.33
2022-08-22T11:33:46.542Z,3.90
2022-08-22T11:36:38.023Z,3.77
2022-08-22T11:40:05.843Z,4.87
2022-08-22T11:43:45.316Z,3.30
2022-08-22T11:47:03.351Z,3.65
2022-08-22T11:50:22.270Z,4.20
2022-08-22T11:53:55.318Z,4.08
2022-08-22T11:57:08.639Z,3.87
2022-08-22T12:00:45.412Z,3.17
2022-08-22T12:04:24.582Z,4.28
2022-08-22T12:07:53.679Z,2.92
2022-08-22T12:11:04.641Z,3.08
2022-08-22T12:14:40.628Z,3.42
2022-08-22T12:18:24.153Z,4.00
2022-08-22T12:21:57.126Z,3.80
2022-08-22T12:25:26.783Z,3.42
2022-08-22T12:29:05.063Z,2.92
2022-08-22T12:32:39.596Z,2.85
2022-08-22T12:36:21.152Z,4.08
2022-08-22T12:39:52.997Z,4.00
2022-08-22T12:43:14.310Z,4.72
2022-08-22T12:46:34.717Z,5.28
2022-08-22T12:50:05.206Z,4.83
2022-08-22T12:53:30.339Z,4.47
2022-08-22T12:56:58.619Z,4.50
2022-08-22T13:00:04.885Z,3.87
2022-08-22T13:03:09.730Z,3.55
2022-08-22T13:06:22.718Z,3.85
2022-08-22T13:09:44.065Z,4.28
2022-08-22T13:12:56.474Z,3.85
2022-08-22T13:16:09.526Z,4.00
2022-08-22T13:19:21.600Z,4.25
2022-08-22T13:22:32.228Z,3.25
2022-08-22T13:25:40.952Z,3.80
2022-08-22T13:28:47.931Z,3.45
2022-08-22T13:31:55.089Z,4.60
2022-08-22T13:35:04.091Z,3.35
2022-08-22T13:38:14.964Z,3.87
2022-08-22T13:41:20.498Z,4.03
2022-08-22T13:44:33.558Z,3.08
2022-08-22T13:47:39.944Z,2.77
2022-08-22T13:50:53.906Z,3.30
2022-08-22T13:54:11.241Z,3.30
2022-08-22T13:57:39.760Z,4.17
2022-08-22T14:01:11.717Z,3.47
2022-08-22T14:04:39.622Z,3.22
2022-08-22T14:08:12.703Z,3.47
2022-08-22T14:14:08.310Z,3.55
2022-08-22T14:17:13.774Z,3.47
2022-08-22T14:20:32.520Z,3.22
2022-08-22T14:23:42.282Z,3.92
2022-08-22T14:26:52.600Z,3.12
2022-08-22T14:30:08.332Z,3.87
2022-08-22T14:33:34.228Z,3.15
2022-08-22T14:36:44.475Z,3.50
2022-08-22T14:40:25.527Z,3.67
2022-08-22T14:43:45.944Z,3.75
2022-08-22T14:47:03.833Z,3.40
2022-08-22T14:50:09.365Z,3.42
2022-08-22T14:53:44.785Z,3.27
2022-08-22T14:56:50.471Z,3.80
2022-08-22T15:00:03.999Z,4.20
2022-08-22T15:03:14.820Z,3.35
2022-08-22T15:06:29.302Z,3.65
2022-08-22T15:09:57.144Z,3.60
2022-08-22T15:13:09.786Z,3.35
2022-08-22T15:16:15.862Z,4.00
2022-08-22T15:19:44.471Z,4.25
2022-08-22T15:22:52.248Z,4.17
2022-08-22T15:25:58.054Z,4.60
2022-08-22T15:29:25.518Z,3.33
2022-08-22T15:32:41.802Z,3.83
2022-08-22T15:35:46.783Z,3.72
2022-08-22T15:38:59.156Z,3.70
2022-08-22T15:42:06.104Z,3.45
2022-08-22T15:45:12.713Z,4.22
2022-08-22T15:48:26.012Z,4.35
2022-08-22T15:51:53.562Z,4.05
2022-08-22T15:55:13.013Z,4.05
2022-08-22T15:58:28.532Z,3.98
2022-08-22T16:01:37.907Z,4.53
2022-08-22T16:04:57.842Z,4.15
2022-08-22T16:08:21.525Z,4.25
2022-08-22T16:11:38.554Z,4.22
2022-08-22T16:14:56.913Z,4.33
2022-08-22T16:18:03.200Z,4.22
2022-08-22T16:21:09.237Z,3.77
2022-08-22T16:24:19.737Z,5.78
2022-08-22T16:27:36.253Z,4.58
2022-08-22T16:30:48.730Z,4.45
2022-08-22T16:33:56.098Z,4.62
2022-08-22T16:37:28.591Z,4.30
2022-08-22T16:40:38.990Z,4.08
2022-08-22T16:43:52.655Z,3.67
2022-08-22T16:46:55.191Z,3.67
2022-08-22T16:50:12.006Z,3.58
2022-08-22T16:53:46.159Z,4.17
2022-08-22T16:56:57.469Z,4.10
2022-08-22T17:00:22.864Z,3.77
2022-08-22T17:03:57.772Z,3.37
2022-08-22T17:07:32.144Z,3.08
2022-08-22T17:11:10.935Z,3.62
2022-08-22T17:14:48.737Z,4.33
2022-08-22T17:18:24.287Z,3.47
2022-08-22T17:21:51.665Z,4.90
2022-08-22T17:28:07.796Z,5.08
2022-08-22T17:31:26.842Z,5.10
2022-08-22T17:35:12.771Z,5.17
2022-08-22T17:38:53.769Z,4.10
2022-08-22T17:42:29.055Z,5.67
2022-08-22T17:45:36.699Z,4.33
2022-08-22T17:49:09.233Z,5.22
2022-08-22T17:52:25.610Z,5.70
2022-08-22T17:55:37.708Z,5.03
2022-08-22T17:58:48.606Z,4.97
2022-08-22T18:02:18.218Z,5.75
2022-08-22T18:05:34.442Z,5.50
2022-08-22T18:12:05.651Z,6.30
2022-08-22T18:15:23.360Z,5.70
2022-08-22T18:18:42.421Z,5.62
2022-08-22T18:22:03.994Z,4.78
2022-08-22T18:25:36.461Z,3.92
2022-08-22T18:28:55.093Z,5.08
2022-08-22T18:32:25.473Z,4.77
2022-08-22T18:35:48.590Z,4.28
2022-08-22T18:39:10.233Z,4.12
2022-08-22T18:42:27.793Z,4.42
2022-08-22T18:45:44.185Z,4.62
2022-08-22T18:49:14.113Z,4.25
2022-08-22T18:52:25.278Z,4.15
2022-08-22T18:59:06.426Z,4.65
2022-08-22T19:02:36.522Z,4.72
2022-08-22T19:06:21.020Z,5.62
2022-08-22T19:10:02.151Z,4.42
2022-08-22T19:13:48.797Z,4.25
2022-08-22T19:17:20.558Z,4.83
2022-08-22T19:21:03.713Z,3.47
2022-08-22T19:24:10.271Z,4.58
2022-08-22T19:27:37.851Z,4.12
2022-08-22T19:31:05.765Z,4.42
2022-08-22T19:34:46.939Z,3.87
2022-08-22T19:40:25.537Z,3.72
2022-08-22T19:43:53.398Z,4.20
2022-08-22T19:47:01.367Z,4.62
2022-08-22T19:50:13.670Z,4.80
2022-08-22T19:53:48.351Z,4.03
2022-08-22T19:57:20.138Z,3.83
2022-08-22T20:00:38.893Z,4.72
2022-08-22T20:04:11.402Z,3.95
2022-08-22T20:07:42.485Z,4.40
2022-08-22T20:11:35.083Z,3.70
2022-08-22T20:14:46.443Z,3.45
2022-08-22T20:21:14.246Z,3.65
2022-08-22T20:24:22.015Z,3.10
2022-08-22T20:27:34.936Z,3.65
2022-08-22T20:30:54.502Z,3.67
2022-08-22T20:34:02.212Z,2.67
2022-08-22T20:37:29.621Z,3.15
2022-08-22T20:40:57.084Z,3.12
2022-08-22T20:44:11.426Z,2.75
2022-08-22T20:47:36.186Z,3.10
2022-08-22T20:50:38.091Z,3.22
2022-08-22T20:53:43.764Z,3.27
2022-08-22T20:56:56.907Z,3.45
2022-08-22T21:00:08.387Z,3.17
2022-08-22T21:03:24.273Z,3.67
2022-08-22T21:06:32.404Z,3.05
2022-08-22T21:09:55.807Z,3.67
2022-08-22T21:13:35.193Z,3.22
2022-08-22T21:16:45.977Z,2.95
2022-08-22T21:19:44.347Z,4.50
2022-08-22T21:22:40.653Z,3.30
2022-08-22T21:25:39.448Z,4.10
2022-08-22T21:28:51.956Z,4.45
2022-08-22T21:32:07.484Z,4.20
2022-08-22T21:35:13.446Z,5.05
2022-08-22T21:38:18.715Z,5.03
2022-08-22T21:41:23.975Z,6.08
2022-08-22T21:44:51.947Z,5.35
2022-08-22T21:47:57.209Z,5.25
2022-08-22T21:51:03.929Z,4.92
2022-08-22T21:54:44.642Z,6.97
2022-08-22T21:57:49.582Z,6.10
2022-08-22T22:01:08.646Z,5.42
2022-08-22T22:04:15.909Z,6.15
2022-08-22T22:07:22.161Z,6.05
2022-08-22T22:10:32.001Z,5.45
2022-08-22T22:13:37.165Z,7.03
2022-08-22T22:16:42.464Z,6.70
2022-08-22T22:19:48.352Z,6.28
2022-08-22T22:22:54.073Z,5.65
2022-08-22T22:26:00.860Z,6.05
2022-08-22T22:29:06.660Z,6.92
2022-08-22T22:32:13.550Z,7.12
2022-08-22T22:35:20.641Z,7.33
2022-08-22T22:38:26.128Z,7.62
2022-08-22T22:41:32.373Z,8.20
2022-08-22T22:44:38.200Z,8.63
2022-08-22T22:47:46.085Z,10.05
2022-08-22T22:50:51.354Z,8.93
2022-08-22T22:53:57.549Z,8.73
2022-08-22T22:57:03.207Z,9.83
2022-08-22T23:00:09.659Z,9.00
2022-08-22T23:03:16.255Z,8.70
2022-08-22T23:06:29.065Z,7.95
2022-08-22T23:09:38.551Z,10.23
2022-08-22T23:12:41.370Z,9.45
2022-08-22T23:15:47.888Z,10.98
2022-08-22T23:18:54.621Z,9.48
2022-08-22T23:22:00.917Z,9.70
2022-08-22T23:25:07.411Z,10.88
2022-08-22T23:28:13.802Z,13.88
2022-08-22T23:31:34.959Z,11.88
2022-08-22T23:34:46.912Z,14.18
2022-08-22T23:37:52.424Z,12.37
2022-08-22T23:40:58.499Z,10.88
2022-08-22T23:44:06.013Z,12.63
2022-08-22T23:47:11.430Z,16.57
2022-08-22T23:50:17.008Z,13.45
2022-08-22T23:53:22.202Z,15.13
2022-08-22T23:56:31.185Z,15.20
2022-08-22T23:59:46.513Z,13.78
